Decoded Metar for UHBB (BLAGOVESCHENSK in RUSSIA) (IATA:BQS) | Meteo·Mobile Aviation Weather
aviador You're here:

UHBB Decoded Metar

BLAGOVESCHENSK in RUSSIA
Report Time2019-02-17 05:30:00
UTC Time2019-02-17 05:47:17
Flight Rules vfr VFR
Wind350° at 16 kt
W.Decomp.*RWY 36: 16.0 kt HW 0.3 kt RCW
W.Rank350° ranks 5
Current wind is above 350° avg. (8.2)
Visibility9999 m
Phenomena:N/A
Clouds:N/A
Expected CloudBase > 5,600 ft AGL from Temp-Dew spread
CeilingNone
Temp00°C (ISA -14)
Dew Point-14°C (34% RH)
AAT-9.1°C
QNH1010 hPa
Density Alt-899 ft
Elevation640 ft
Report Wrong Elevation
Raw Report
METAR UHBB 170530Z 35008MPS CAVOK 00/M14 Q1010 R36/090060 NOSIG RMK
QFE740/0987=

Extra information for UHBB:More info

Metar Taf Metar & Taf Last 4 Metars F.Rules Stats Wind Profile Meteogram Temp Stats Airport Information Weather charts Add Link Nearby VenuesMetar ALERT Operation Metar Decoded Social comments